createdAt,value
2022-11-05T07:53:06.673Z,16.10
2022-11-05T07:58:05.461Z,13.00
2022-11-05T08:03:08.184Z,13.43
2022-11-05T08:08:09.815Z,9.73
2022-11-05T08:13:09.109Z,14.33
2022-11-05T08:18:08.676Z,10.77
2022-11-05T08:23:08.297Z,11.53
2022-11-05T08:28:08.453Z,7.87
2022-11-05T08:33:08.660Z,13.10
2022-11-05T08:38:09.622Z,10.50
2022-11-05T08:43:09.999Z,11.17
2022-11-05T08:48:11.145Z,10.17
2022-11-05T08:53:11.463Z,8.20
2022-11-05T08:58:15.374Z,13.83
2022-11-05T09:03:14.171Z,15.97
2022-11-05T09:08:16.091Z,15.20
2022-11-05T09:13:18.675Z,12.50
2022-11-05T09:18:18.814Z,13.90
2022-11-05T09:23:18.800Z,7.67
2022-11-05T09:28:18.313Z,11.40
2022-11-05T09:33:17.982Z,9.63
2022-11-05T09:38:16.409Z,5.93
2022-11-05T09:43:20.890Z,9.43
2022-11-05T09:48:22.072Z,11.93
2022-11-05T09:53:21.859Z,7.37
2022-11-05T09:58:28.880Z,12.20
2022-11-05T10:03:29.956Z,5.17
2022-11-05T10:08:31.623Z,9.10
2022-11-05T10:13:36.227Z,8.13
2022-11-05T10:18:36.374Z,12.23
2022-11-05T10:23:34.696Z,10.10
2022-11-05T10:28:35.449Z,6.73
2022-11-05T10:33:36.693Z,6.13
2022-11-05T10:38:35.018Z,8.90
2022-11-05T10:43:40.788Z,11.13
2022-11-05T10:48:51.168Z,5.80
2022-11-05T10:54:00.318Z,7.20
2022-11-05T10:59:06.712Z,9.90
2022-11-05T11:04:15.315Z,7.50
2022-11-05T11:09:22.321Z,8.67
2022-11-05T11:14:22.371Z,6.30
2022-11-05T11:19:30.945Z,4.60
2022-11-05T11:24:33.353Z,7.63
2022-11-05T11:29:40.483Z,7.20
2022-11-05T11:34:41.800Z,7.00
2022-11-05T11:39:40.531Z,8.73
2022-11-05T11:44:44.062Z,8.47
2022-11-05T11:49:46.459Z,6.83
2022-11-05T11:54:44.425Z,13.30
2022-11-05T12:00:10.250Z,6.93
2022-11-05T12:05:24.732Z,11.93
2022-11-05T12:10:49.626Z,8.23
2022-11-05T12:15:52.652Z,5.50
2022-11-05T12:21:08.233Z,7.23
2022-11-05T12:26:13.712Z,7.60
2022-11-05T12:31:26.470Z,5.27
2022-11-05T12:36:41.712Z,7.73
2022-11-05T12:41:46.230Z,5.73
2022-11-05T12:46:54.550Z,6.13
2022-11-05T12:52:17.704Z,3.23
2022-11-05T12:57:17.274Z,4.43
2022-11-05T13:02:23.436Z,12.50
2022-11-05T13:07:27.442Z,7.87
2022-11-05T13:12:28.494Z,9.47
2022-11-05T13:17:32.025Z,4.90
2022-11-05T13:22:36.789Z,9.60
2022-11-05T13:27:55.752Z,6.93
2022-11-05T13:33:00.830Z,12.10
2022-11-05T13:38:22.523Z,6.43
2022-11-05T13:43:35.193Z,5.80
2022-11-05T13:49:00.869Z,5.07
2022-11-05T13:54:33.085Z,10.07
2022-11-05T13:59:59.784Z,6.43
2022-11-05T14:05:01.909Z,6.13
2022-11-05T14:10:02.587Z,4.13
2022-11-05T14:15:04.237Z,7.70
2022-11-05T14:20:25.869Z,5.23
2022-11-05T14:25:57.789Z,7.03
2022-11-05T14:30:56.837Z,5.47
2022-11-05T14:36:27.434Z,9.27
2022-11-05T14:41:25.361Z,7.40
2022-11-05T14:46:23.386Z,11.27
2022-11-05T14:51:28.277Z,7.07
2022-11-05T14:56:26.575Z,6.80
2022-11-05T15:01:54.618Z,8.27
2022-11-05T15:07:28.659Z,5.67
2022-11-05T15:12:37.082Z,5.77
2022-11-05T15:17:41.727Z,5.03
2022-11-05T15:22:43.095Z,8.67
2022-11-05T15:27:54.888Z,7.17
2022-11-05T15:32:53.141Z,11.80
2022-11-05T15:37:55.969Z,10.33
2022-11-05T15:43:19.508Z,6.43
2022-11-05T15:48:20.851Z,8.57
2022-11-05T15:53:47.475Z,7.00
2022-11-05T15:58:49.914Z,5.27
2022-11-05T16:03:48.011Z,8.00
2022-11-05T16:08:49.672Z,13.40
2022-11-05T16:13:48.997Z,9.17
2022-11-05T16:18:46.949Z,10.53
2022-11-05T16:23:53.191Z,10.47
2022-11-05T16:28:52.996Z,19.27
2022-11-05T16:33:51.511Z,11.40
2022-11-05T16:38:49.855Z,8.47
2022-11-05T16:43:54.503Z,12.17
2022-11-05T16:48:52.380Z,10.47
2022-11-05T16:53:50.627Z,13.00
2022-11-05T16:58:50.153Z,17.10
2022-11-05T17:03:50.915Z,16.00
2022-11-05T17:08:49.503Z,11.60
2022-11-05T17:13:48.083Z,15.20
2022-11-05T17:18:46.045Z,11.30
2022-11-05T17:23:45.695Z,13.57
2022-11-05T17:28:43.639Z,15.43
2022-11-05T17:33:41.741Z,16.10
2022-11-05T17:38:40.472Z,16.33
2022-11-05T17:43:40.040Z,12.60
2022-11-05T17:48:38.885Z,13.43
2022-11-05T17:53:37.333Z,18.27
2022-11-05T17:58:35.292Z,16.00
2022-11-05T18:03:35.365Z,20.23
2022-11-05T18:08:33.658Z,19.50
2022-11-05T18:13:31.571Z,20.43
2022-11-05T18:18:29.504Z,18.90
2022-11-05T18:23:28.760Z,23.37
2022-11-05T18:28:29.863Z,15.70
2022-11-05T18:33:27.827Z,17.80
2022-11-05T18:38:25.713Z,22.23
2022-11-05T18:43:24.961Z,20.60
2022-11-05T18:48:22.931Z,19.30
2022-11-05T18:53:20.909Z,17.17
2022-11-05T18:58:18.891Z,17.50
2022-11-05T19:03:18.128Z,19.70
2022-11-05T19:08:16.028Z,16.37
2022-11-05T19:13:14.019Z,26.77
2022-11-05T19:18:12.114Z,21.97
2022-11-05T19:23:11.599Z,19.93
2022-11-05T19:28:09.746Z,16.67
2022-11-05T19:33:07.898Z,17.90
2022-11-05T19:38:05.823Z,19.20
2022-11-05T19:43:05.088Z,17.20
2022-11-05T19:48:03.023Z,18.57
2022-11-05T19:53:01.680Z,20.27
2022-11-05T19:57:59.576Z,14.90
2022-11-05T20:02:58.950Z,15.93
2022-11-05T20:07:57.182Z,18.63
2022-11-05T20:12:55.068Z,13.67
2022-11-05T20:17:55.766Z,20.90
2022-11-05T20:22:55.039Z,18.43
2022-11-05T20:27:52.959Z,22.03
2022-11-05T20:32:54.791Z,16.83
2022-11-05T20:37:56.012Z,23.17
2022-11-05T20:42:53.919Z,16.60
2022-11-05T20:47:51.838Z,18.03
2022-11-05T20:52:49.845Z,12.93
2022-11-05T20:57:49.089Z,17.70
2022-11-05T21:02:47.162Z,20.30
2022-11-05T21:07:45.380Z,19.93
2022-11-05T21:12:44.816Z,19.13
2022-11-05T21:17:45.167Z,23.83
2022-11-05T21:22:45.319Z,15.40
2022-11-05T21:27:44.544Z,18.70
2022-11-05T21:32:43.821Z,18.00
2022-11-05T21:37:41.698Z,16.33
2022-11-05T21:42:39.697Z,20.13
2022-11-05T21:47:37.622Z,14.30
2022-11-05T21:52:54.137Z,18.40
2022-11-05T21:58:06.008Z,15.30
2022-11-05T22:03:03.929Z,14.93
2022-11-05T22:08:03.477Z,14.87
2022-11-05T22:13:02.226Z,12.00
2022-11-05T22:18:00.207Z,13.07
2022-11-05T22:22:58.147Z,15.43
2022-11-05T22:27:57.430Z,14.70
2022-11-05T22:32:55.370Z,16.07
2022-11-05T22:37:53.368Z,15.47
2022-11-05T22:42:51.284Z,11.80
2022-11-05T22:47:50.536Z,16.50
2022-11-05T22:52:48.463Z,11.20
2022-11-05T22:57:46.372Z,13.23
2022-11-05T23:02:44.432Z,12.23
2022-11-05T23:08:10.142Z,18.40
2022-11-05T23:13:08.634Z,10.80
2022-11-05T23:18:26.936Z,10.80
2022-11-05T23:23:43.891Z,18.20
2022-11-05T23:28:41.796Z,14.03
2022-11-05T23:33:39.722Z,19.33
2022-11-05T23:38:39.369Z,11.80
2022-11-05T23:43:54.587Z,22.20
2022-11-05T23:48:52.488Z,12.63
2022-11-05T23:53:51.749Z,12.83
2022-11-05T23:58:49.663Z,9.50
